Monterey, Indiana
Current Conditions -  °F | °C
As of 6:35 AM on Sunday 23 Nov 2014 (Local Time) from KOXI Reporting Station
Overcast Overcast  
Wind Chill: 42°   Ceiling: 10000
Heat Index: 47°   Visibility: 10mi
Dew Point: 42°   Wind: 12mph
Humidity: 81%   Direction: 160°SSE
Pressure: 29.82"   Gusts: NA
Location:  41.16°N, 86.48°W
Report Text: KOXI 231235Z AUTO 16010KT 10SM SCT060 SCT070 OVC100 09/05 A2982 RMK AO1 T00850054
Loading
Personal Weather Stations






























Interactive Weather Map New forecast layout! Learn more

10-Day Weather Forecast

Advertisements
Track Severe Weather on mobile